Time;durP1;ratioP1;P1;durP2;ratioP2;P2;SDS_P1;SDS_P2;PMS_P1;PMS_P2;Temp;Humidity;BMP_temperature;BMP_pressure;BME280_temperature;BME280_humidity;BME280_pressure;Samples;Min_cycle;Max_cycle;Signal;HPM_P1;HPM_P2
2022/06/07 00:00:13;;;;;;;0.50;0.40;;;;;;;18.05;48.88;101090.78;4939761;28;96967;-50
2022/06/07 00:02:39;;;;;;;0.90;0.37;;;;;;;18.01;48.78;101089.63;4940659;28;97523;-50
2022/06/07 00:05:04;;;;;;;0.50;0.30;;;;;;;17.95;48.87;101078.59;4943972;28;97148;-52
2022/06/07 00:07:30;;;;;;;0.50;0.30;;;;;;;17.89;49.17;101078.66;4937680;28;97258;-52
2022/06/07 00:09:56;;;;;;;0.50;0.30;;;;;;;17.84;49.42;101096.22;4941727;28;97161;-52
2022/06/07 00:12:22;;;;;;;0.50;0.43;;;;;;;17.81;49.34;101080.59;4941222;28;97145;-50
2022/06/07 00:14:48;;;;;;;0.50;0.40;;;;;;;17.80;49.49;101076.28;4938833;28;96817;-50
2022/06/07 00:17:14;;;;;;;0.50;0.30;;;;;;;17.77;49.33;101073.84;4940806;28;96826;-50
2022/06/07 00:19:40;;;;;;;0.50;0.30;;;;;;;17.74;49.28;101072.09;4939969;28;97039;-52
2022/06/07 00:22:06;;;;;;;0.40;0.30;;;;;;;17.72;49.36;101067.09;4939357;28;98062;-53
2022/06/07 00:24:32;;;;;;;0.50;0.30;;;;;;;17.68;49.35;101068.69;4943278;28;97101;-51
2022/06/07 00:26:58;;;;;;;0.40;0.30;;;;;;;17.65;49.44;101073.25;4937731;28;97814;-52
2022/06/07 00:29:25;;;;;;;0.50;0.30;;;;;;;17.64;49.55;101062.69;4943722;28;96922;-50
2022/06/07 00:31:51;;;;;;;0.47;0.30;;;;;;;17.61;49.65;101058.16;4940393;28;97139;-50
2022/06/07 00:34:17;;;;;;;0.50;0.40;;;;;;;17.59;49.60;101055.91;4944692;28;97308;-50
2022/06/07 00:36:43;;;;;;;0.50;0.30;;;;;;;17.55;49.73;101063.06;4940724;28;98132;-50
2022/06/07 00:39:08;;;;;;;0.40;0.30;;;;;;;17.52;49.78;101053.75;4944072;28;96621;-51
2022/06/07 00:41:35;;;;;;;0.50;0.30;;;;;;;17.53;49.84;101060.06;4940972;28;96998;-50
2022/06/07 00:44:24;;;;;;;0.50;0.40;;;;;;;17.50;50.95;101056.31;4944207;28;97247;-51
2022/06/07 00:47:00;;;;;;;0.50;0.30;;;;;;;17.51;50.23;101051.50;4942222;28;96771;-51
2022/06/07 00:49:30;;;;;;;0.50;0.40;;;;;;;17.52;50.23;101055.78;4945152;28;97574;-52
2022/06/07 00:51:56;;;;;;;0.40;0.30;;;;;;;17.53;50.13;101054.50;4945239;28;96749;-50
2022/06/07 00:54:25;;;;;;;0.50;0.40;;;;;;;17.54;50.42;101051.19;4940431;28;98408;-51
2022/06/07 00:56:51;;;;;;;0.50;0.30;;;;;;;17.55;50.16;101055.47;4937214;28;96987;-51
2022/06/07 00:59:17;;;;;;;0.50;0.40;;;;;;;17.53;50.31;101052.47;4942593;28;97175;-50
2022/06/07 01:01:42;;;;;;;0.50;0.30;;;;;;;17.52;50.41;101042.63;4939195;28;97041;-51
2022/06/07 01:04:08;;;;;;;0.57;0.40;;;;;;;17.51;50.48;101055.06;4941943;28;101856;-52
2022/06/07 01:12:02;;;;;;;1.47;0.30;;;;;;;17.51;50.55;101052.25;4934807;28;100587;-50
2022/06/07 01:14:27;;;;;;;0.43;0.30;;;;;;;17.50;50.52;101042.41;4936303;28;104705;-50
2022/06/07 01:16:53;;;;;;;0.50;0.30;;;;;;;17.50;50.38;101038.84;4933355;28;96864;-50
2022/06/07 01:19:18;;;;;;;1.33;0.50;;;;;;;17.50;50.77;101031.28;4936765;28;97117;-50
2022/06/07 01:21:45;;;;;;;0.40;0.30;;;;;;;17.51;50.94;101032.78;4940368;28;97302;-50
2022/06/07 01:24:12;;;;;;;0.50;0.30;;;;;;;17.53;50.95;101027.44;4939314;28;97900;-50
2022/06/07 01:26:38;;;;;;;0.50;0.40;;;;;;;17.56;51.12;101036.75;4941056;28;96813;-50
2022/06/07 01:29:03;;;;;;;0.63;0.33;;;;;;;17.56;51.08;101034.72;4944028;28;97237;-52
2022/06/07 01:31:29;;;;;;;0.60;0.33;;;;;;;17.58;51.10;101021.00;4941521;28;97436;-54
2022/06/07 01:33:54;;;;;;;0.70;0.40;;;;;;;17.55;50.97;101013.75;4934105;28;97150;-51
2022/06/07 01:36:19;;;;;;;0.50;0.30;;;;;;;17.54;51.19;101008.72;4941474;28;96983;-49
2022/06/07 01:41:53;;;;;;;1.70;0.40;;;;;;;17.54;51.22;101006.66;4938045;28;97512;-53
2022/06/07 01:44:16;;;;;;;2.43;0.50;;;;;;;17.56;51.18;101006.16;4940296;28;100346;-50
2022/06/07 01:46:41;;;;;;;0.50;0.40;;;;;;;17.58;51.22;101007.09;4938940;28;97329;-50
2022/06/07 01:49:06;;;;;;;0.50;0.40;;;;;;;17.59;51.19;101013.44;4940965;28;98635;-51
2022/06/07 01:51:32;;;;;;;0.50;0.40;;;;;;;17.61;51.21;101008.84;4934556;28;97110;-51
2022/06/07 01:53:57;;;;;;;0.50;0.50;;;;;;;17.62;51.20;101010.34;4941402;28;97463;-50
2022/06/07 01:56:23;;;;;;;0.90;0.63;;;;;;;17.64;51.28;101007.78;4931482;28;96801;-52
2022/06/07 01:58:48;;;;;;;0.60;0.60;;;;;;;17.65;51.16;101011.28;4942614;28;97003;-52
2022/06/07 02:01:14;;;;;;;0.50;0.40;;;;;;;17.63;51.12;101011.84;4932487;28;97774;-50
2022/06/07 02:03:40;;;;;;;0.50;0.40;;;;;;;17.64;51.09;101007.03;4939299;28;97129;-50
2022/06/07 02:06:12;;;;;;;0.63;0.63;;;;;;;17.66;51.25;101015.59;4938442;28;97077;-51
2022/06/07 02:08:40;;;;;;;0.97;0.70;;;;;;;17.66;51.23;101010.03;4937731;28;96954;-52
2022/06/07 02:11:15;;;;;;;0.70;0.63;;;;;;;17.65;51.48;101008.50;4938725;28;100778;-51
2022/06/07 02:13:41;;;;;;;0.60;0.50;;;;;;;17.64;51.41;100999.44;4941405;28;100482;-50
2022/06/07 02:16:08;;;;;;;0.80;0.73;;;;;;;17.66;51.32;101004.44;4938413;28;96926;-52
2022/06/07 02:18:34;;;;;;;0.50;0.40;;;;;;;17.66;51.26;100994.09;4932310;28;97086;-50
2022/06/07 02:21:00;;;;;;;0.50;0.43;;;;;;;17.65;51.52;100998.13;4940641;28;97783;-50
2022/06/07 02:23:30;;;;;;;1.07;0.80;;;;;;;17.63;51.64;100995.13;4932794;28;96921;-52
2022/06/07 02:26:00;;;;;;;2.57;0.70;;;;;;;17.62;51.57;101002.00;4939522;28;97159;-51
2022/06/07 02:28:30;;;;;;;0.53;0.47;;;;;;;17.59;51.50;101005.84;4937403;28;97933;-51
2022/06/07 02:30:58;;;;;;;2.20;0.70;;;;;;;17.58;51.56;101003.59;4938772;28;100888;-52
2022/06/07 02:33:26;;;;;;;0.90;0.50;;;;;;;17.57;51.57;100996.50;4939672;28;96755;-51
2022/06/07 02:35:51;;;;;;;0.90;0.87;;;;;;;17.56;51.65;100995.75;4938100;28;97068;-50
2022/06/07 02:38:17;;;;;;;0.60;0.60;;;;;;;17.57;51.56;100993.72;4938620;28;97357;-51
2022/06/07 02:40:45;;;;;;;0.60;0.57;;;;;;;17.57;51.70;100993.72;4936552;28;97286;-52
2022/06/07 02:43:10;;;;;;;0.50;0.50;;;;;;;17.55;51.69;100997.06;4935656;28;97172;-51
2022/06/07 02:45:35;;;;;;;0.60;0.50;;;;;;;17.56;51.77;100995.03;4935296;28;96760;-50
2022/06/07 02:48:01;;;;;;;0.93;0.93;;;;;;;17.56;51.85;101001.31;4938178;28;97281;-53
2022/06/07 02:50:26;;;;;;;1.10;0.80;;;;;;;17.59;51.71;100999.50;4933866;28;97862;-53
2022/06/07 02:52:51;;;;;;;1.03;0.70;;;;;;;17.60;51.74;100992.69;4939679;28;102743;-50
2022/06/07 02:55:18;;;;;;;0.90;0.90;;;;;;;17.59;51.80;100994.72;4941119;28;98326;-50
2022/06/07 02:57:44;;;;;;;1.40;1.10;;;;;;;17.61;51.68;100992.13;4937282;28;97135;-53
2022/06/07 03:00:13;;;;;;;0.67;0.67;;;;;;;17.62;51.67;100988.09;4939670;28;97043;-50
2022/06/07 03:02:38;;;;;;;1.80;0.77;;;;;;;17.63;51.58;100986.78;4939453;28;97485;-50
2022/06/07 03:05:04;;;;;;;0.70;0.60;;;;;;;17.66;51.56;100987.75;4936554;28;97050;-52
2022/06/07 03:07:30;;;;;;;0.90;0.90;;;;;;;17.66;51.74;100988.50;4935147;28;97037;-51
2022/06/07 03:09:55;;;;;;;1.20;1.10;;;;;;;17.70;51.82;100983.38;4939276;28;97580;-51
2022/06/07 03:12:20;;;;;;;1.30;0.87;;;;;;;17.73;51.70;100978.78;4937391;28;97289;-50
2022/06/07 03:14:47;;;;;;;1.03;0.90;;;;;;;17.74;51.77;100983.03;4941578;28;96746;-51
2022/06/07 03:17:12;;;;;;;0.83;0.83;;;;;;;17.76;51.81;100974.91;4937926;28;97414;-51
2022/06/07 03:19:38;;;;;;;1.47;0.90;;;;;;;17.78;51.80;100981.44;4938617;28;98313;-52
2022/06/07 03:22:04;;;;;;;0.90;0.80;;;;;;;17.79;51.70;100982.97;4939114;28;96879;-51
2022/06/07 03:24:29;;;;;;;0.90;0.90;;;;;;;17.80;51.76;100981.66;4935608;28;96798;-51
2022/06/07 03:26:55;;;;;;;1.07;1.00;;;;;;;17.82;51.53;100987.44;4937921;28;97404;-51
2022/06/07 03:29:21;;;;;;;1.30;1.03;;;;;;;17.84;51.75;100979.31;4940393;28;97125;-53
2022/06/07 03:31:46;;;;;;;0.80;0.80;;;;;;;17.86;51.87;100976.75;4937328;28;100300;-52
2022/06/07 03:34:12;;;;;;;1.23;1.13;;;;;;;17.87;51.67;100972.69;4939103;28;97152;-50
2022/06/07 03:36:37;;;;;;;1.30;0.90;;;;;;;17.90;51.76;100973.66;4934636;28;97433;-53
2022/06/07 03:39:08;;;;;;;1.00;0.80;;;;;;;17.92;51.87;100977.41;4936295;28;97071;-50
2022/06/07 03:41:35;;;;;;;0.80;0.80;;;;;;;17.94;51.75;100976.84;4933847;28;97210;-50
2022/06/07 03:44:00;;;;;;;0.83;0.83;;;;;;;17.96;51.92;100972.25;4940062;28;97402;-51
2022/06/07 03:46:28;;;;;;;0.80;0.80;;;;;;;18.00;51.84;100976.75;4928527;28;97435;-53
2022/06/07 03:48:55;;;;;;;2.43;1.07;;;;;;;18.01;51.75;100972.69;4938635;28;96885;-50
2022/06/07 03:51:23;;;;;;;1.47;1.37;;;;;;;18.01;51.75;100976.22;4937363;28;97341;-54
2022/06/07 03:53:49;;;;;;;1.30;1.20;;;;;;;18.02;51.53;100977.69;4936702;28;97056;-51
2022/06/07 03:56:15;;;;;;;1.33;1.20;;;;;;;18.04;51.66;100971.63;4936544;28;97018;-53
2022/06/07 03:58:41;;;;;;;1.13;1.03;;;;;;;18.06;51.75;100966.25;4924040;28;102148;-52
2022/06/07 04:01:09;;;;;;;1.77;1.30;;;;;;;18.07;51.76;100976.09;4940809;28;98697;-51
2022/06/07 04:03:35;;;;;;;1.93;1.23;;;;;;;18.08;51.85;100972.78;4960608;28;97004;-51
2022/06/07 04:06:02;;;;;;;1.30;1.20;;;;;;;18.10;51.82;100975.03;4940060;28;97427;-52
2022/06/07 04:08:27;;;;;;;1.30;1.20;;;;;;;18.11;51.76;100977.25;4936760;28;96762;-51
2022/06/07 04:11:01;;;;;;;1.53;1.10;;;;;;;18.14;51.90;100970.63;4940595;28;96975;-52
2022/06/07 04:13:30;;;;;;;2.40;1.30;;;;;;;18.15;51.73;100972.13;4935729;28;96758;-51
2022/06/07 04:15:55;;;;;;;1.10;1.03;;;;;;;18.15;51.69;100972.13;4938322;28;97044;-52
2022/06/07 04:18:21;;;;;;;1.23;1.00;;;;;;;18.18;51.71;100975.88;4937702;28;98170;-50
2022/06/07 04:20:47;;;;;;;0.97;0.97;;;;;;;18.19;51.82;100986.50;4943153;28;96988;-51
2022/06/07 04:23:17;;;;;;;1.20;1.10;;;;;;;18.20;52.02;100976.84;4944795;28;97106;-51
2022/06/07 04:25:43;;;;;;;1.87;1.43;;;;;;;18.20;51.88;100979.63;4936207;28;97344;-51
2022/06/07 04:28:08;;;;;;;3.87;1.53;;;;;;;18.20;52.16;100979.63;4934917;28;97491;-52
2022/06/07 04:30:34;;;;;;;1.30;1.30;;;;;;;18.22;51.87;100976.28;4936757;28;97394;-51
2022/06/07 04:33:00;;;;;;;2.27;1.23;;;;;;;18.24;52.32;100976.53;4938473;28;96934;-50
2022/06/07 04:35:25;;;;;;;1.20;0.97;;;;;;;18.22;52.14;100971.47;4939420;28;97201;-52
2022/06/07 04:37:53;;;;;;;1.87;1.23;;;;;;;18.22;52.18;100967.94;4940309;28;96789;-54
2022/06/07 04:40:18;;;;;;;1.53;1.37;;;;;;;18.23;52.18;100961.84;4938862;28;97154;-52
2022/06/07 04:42:46;;;;;;;1.03;1.03;;;;;;;18.25;52.01;100964.09;4940959;28;97076;-51
2022/06/07 04:45:15;;;;;;;0.80;0.80;;;;;;;18.24;52.32;100957.75;4943972;28;96945;-51
2022/06/07 04:47:42;;;;;;;1.67;1.00;;;;;;;18.26;52.29;100963.53;4927385;28;97364;-51
2022/06/07 04:50:10;;;;;;;0.90;0.90;;;;;;;18.28;52.47;100957.44;4934102;28;100161;-53
2022/06/07 04:52:35;;;;;;;1.33;1.23;;;;;;;18.28;52.35;100960.22;4936527;28;96729;-51
2022/06/07 04:55:00;;;;;;;1.83;1.57;;;;;;;18.29;52.28;100950.56;4938128;28;97021;-51
2022/06/07 04:57:27;;;;;;;1.27;0.90;;;;;;;18.29;52.63;100948.53;4933555;28;97240;-51
2022/06/07 04:59:53;;;;;;;0.97;0.90;;;;;;;18.31;52.69;100948.00;4938475;28;97745;-50
2022/06/07 05:02:18;;;;;;;1.00;1.00;;;;;;;18.34;52.54;100955.28;4939737;28;97124;-51
2022/06/07 05:04:43;;;;;;;1.07;0.97;;;;;;;18.36;52.75;100958.28;4941426;28;97067;-50
2022/06/07 05:07:09;;;;;;;1.10;1.00;;;;;;;18.38;52.85;100955.69;4939973;28;97338;-50
2022/06/07 05:09:34;;;;;;;4.27;1.30;;;;;;;18.39;52.58;100955.16;4934868;28;96913;-51
2022/06/07 05:11:59;;;;;;;1.63;0.87;;;;;;;18.43;52.79;100954.84;4935252;28;97378;-50
2022/06/07 05:14:27;;;;;;;2.10;1.10;;;;;;;18.44;52.83;100945.97;4936616;28;97310;-52
2022/06/07 05:16:52;;;;;;;1.10;1.00;;;;;;;18.48;52.55;100951.19;4934982;28;98644;-51
2022/06/07 05:19:18;;;;;;;1.33;1.13;;;;;;;18.51;52.77;100947.34;4941026;28;97104;-50
2022/06/07 05:21:45;;;;;;;1.20;1.10;;;;;;;18.52;52.89;100948.84;4942419;28;96728;-50
2022/06/07 05:24:11;;;;;;;1.07;1.07;;;;;;;18.53;52.94;100939.94;4939060;28;97573;-51
2022/06/07 05:26:46;;;;;;;2.73;1.20;;;;;;;18.55;53.11;100936.59;4938086;28;96717;-50
2022/06/07 05:29:19;;;;;;;1.30;1.13;;;;;;;18.57;53.04;100945.16;4940117;28;97399;-50
2022/06/07 05:31:44;;;;;;;0.87;0.87;;;;;;;18.59;52.75;100943.34;4940071;28;97273;-51
2022/06/07 05:34:10;;;;;;;1.33;1.20;;;;;;;18.62;52.73;100938.72;4937584;28;97209;-54
2022/06/07 05:36:35;;;;;;;1.20;1.10;;;;;;;18.67;52.71;100949.00;4937451;28;97219;-52
2022/06/07 05:39:03;;;;;;;2.90;1.30;;;;;;;18.72;52.37;100950.19;4938898;28;97648;-51
2022/06/07 05:41:29;;;;;;;1.33;1.10;;;;;;;18.75;52.53;100941.47;4937170;28;97295;-51
2022/06/07 05:43:55;;;;;;;1.27;0.90;;;;;;;18.79;52.67;100953.03;4943623;28;96845;-51
2022/06/07 05:46:21;;;;;;;1.77;1.10;;;;;;;18.84;52.63;100943.03;4934620;28;97119;-52
2022/06/07 05:48:46;;;;;;;1.57;0.90;;;;;;;18.89;52.41;100940.13;4941749;28;97313;-50
2022/06/07 05:51:12;;;;;;;3.00;1.00;;;;;;;18.92;52.27;100941.81;4939496;28;97157;-51
2022/06/07 05:53:38;;;;;;;0.80;0.80;;;;;;;18.96;52.35;100938.72;4941280;28;96995;-51
2022/06/07 05:56:09;;;;;;;1.50;1.10;;;;;;;19.02;52.51;100947.69;4927755;28;97674;-50
2022/06/07 05:58:35;;;;;;;2.53;1.10;;;;;;;19.08;52.25;100945.50;4936016;28;97266;-50
2022/06/07 06:01:00;;;;;;;1.03;1.03;;;;;;;19.11;52.09;100944.41;4938298;28;97336;-51
2022/06/07 06:03:25;;;;;;;1.17;1.07;;;;;;;19.15;51.99;100939.25;4939090;28;96911;-55
2022/06/07 06:05:51;;;;;;;1.50;1.07;;;;;;;19.20;52.00;100935.53;4934684;28;97408;-50
2022/06/07 06:11:04;;;;;;;0.90;0.90;;;;;;;19.30;51.79;100940.13;4939150;28;96818;-53
2022/06/07 06:13:29;;;;;;;1.80;1.03;;;;;;;19.34;51.77;100934.97;4940105;28;96868;-50
2022/06/07 06:16:10;;;;;;;2.97;1.20;;;;;;;19.40;51.70;100943.94;4938201;28;99850;-50
2022/06/07 06:18:39;;;;;;;1.67;1.10;;;;;;;19.47;51.63;100939.69;4937400;28;97388;-50
2022/06/07 06:21:06;;;;;;;3.53;1.17;;;;;;;19.49;51.55;100936.34;4947590;23;96992;-49
2022/06/07 06:23:31;;;;;;;2.60;1.00;;;;;;;19.54;51.26;100941.03;4922708;28;98441;-46
2022/06/07 06:25:57;;;;;;;1.43;1.00;;;;;;;19.60;51.21;100941.63;4917010;28;97486;-46
2022/06/07 06:28:22;;;;;;;0.87;0.70;;;;;;;19.66;51.50;100936.66;4917144;28;98048;-48
2022/06/07 06:30:48;;;;;;;1.37;0.90;;;;;;;19.74;51.38;100938.22;4915172;28;97231;-46
2022/06/07 06:33:15;;;;;;;15.73;1.20;;;;;;;19.84;51.20;100938.44;4929515;28;97377;-49
2022/06/07 06:35:52;;;;;;;1.60;0.97;;;;;;;19.92;50.79;100934.38;4921096;28;97787;-47
2022/06/07 06:38:19;;;;;;;1.50;0.80;;;;;;;19.95;50.74;100933.28;4919315;28;98262;-48
2022/06/07 06:40:45;;;;;;;2.73;1.10;;;;;;;20.02;50.90;100926.25;4920635;28;96996;-46
2022/06/07 06:43:12;;;;;;;3.20;1.20;;;;;;;20.06;50.70;100932.22;4920300;28;97086;-46
2022/06/07 06:45:39;;;;;;;1.70;0.80;;;;;;;20.09;50.68;100931.13;4921723;28;97223;-47
2022/06/07 06:48:06;;;;;;;1.27;0.87;;;;;;;20.12;50.81;100927.22;4918467;28;97053;-47
2022/06/07 06:50:32;;;;;;;1.23;0.97;;;;;;;20.16;50.52;100924.81;4922432;28;97481;-47
2022/06/07 06:52:57;;;;;;;3.97;1.37;;;;;;;20.20;50.52;100925.22;4918028;28;97068;-47
2022/06/07 06:55:22;;;;;;;0.77;0.77;;;;;;;20.33;50.49;100933.50;4921708;28;96992;-48
2022/06/07 06:57:49;;;;;;;1.17;0.80;;;;;;;20.48;50.21;100939.13;4925684;28;97243;-47
2022/06/07 07:00:15;;;;;;;1.40;1.13;;;;;;;20.57;50.11;100923.88;4926431;28;96967;-46
2022/06/07 07:02:41;;;;;;;2.07;1.17;;;;;;;20.67;50.07;100931.16;4924179;28;96880;-47
2022/06/07 07:05:07;;;;;;;1.80;1.10;;;;;;;20.78;50.13;100930.06;4924470;28;97569;-47
2022/06/07 07:07:32;;;;;;;1.37;0.90;;;;;;;20.90;50.05;100931.94;4913643;28;98257;-48
2022/06/07 07:09:57;;;;;;;1.60;0.77;;;;;;;20.99;49.63;100925.03;4921387;28;97009;-47
2022/06/07 07:12:23;;;;;;;1.63;0.87;;;;;;;21.02;49.32;100925.97;4919739;28;96996;-47
2022/06/07 07:14:48;;;;;;;1.57;1.10;;;;;;;21.07;49.35;100920.25;4925902;28;96832;-47
2022/06/07 07:17:14;;;;;;;1.37;1.20;;;;;;;21.19;49.14;100924.13;4924670;28;96924;-47
2022/06/07 07:19:40;;;;;;;1.63;1.00;;;;;;;21.32;48.72;100917.59;4924478;28;97365;-48
2022/06/07 07:22:06;;;;;;;4.40;0.80;;;;;;;21.40;48.58;100918.34;4918992;28;96974;-47
2022/06/07 07:24:32;;;;;;;1.10;0.80;;;;;;;21.51;48.24;100912.38;4924405;28;97226;-48
2022/06/07 07:26:58;;;;;;;0.90;0.90;;;;;;;21.58;47.85;100920.75;4915920;28;97884;-47
2022/06/07 07:29:24;;;;;;;1.47;0.70;;;;;;;21.58;47.94;100914.38;4920609;28;97145;-47
2022/06/07 07:31:50;;;;;;;2.03;1.10;;;;;;;21.64;47.99;100924.06;4923252;28;96780;-47
2022/06/07 07:34:17;;;;;;;1.27;0.70;;;;;;;21.72;47.77;100920.53;4917446;28;97755;-47
2022/06/07 07:36:48;;;;;;;0.97;0.83;;;;;;;21.74;47.23;100923.50;4923528;28;98487;-47
2022/06/07 07:39:14;;;;;;;0.60;0.60;;;;;;;21.82;47.66;100922.16;4919470;28;97001;-48
2022/06/07 07:41:42;;;;;;;1.03;0.70;;;;;;;21.90;47.23;100925.00;4930258;28;97052;-47
2022/06/07 07:44:11;;;;;;;1.87;0.90;;;;;;;21.91;46.75;100921.63;4921438;28;97078;-47
2022/06/07 07:46:38;;;;;;;0.87;0.70;;;;;;;21.91;46.81;100918.81;4920894;28;97441;-48
2022/06/07 07:49:06;;;;;;;2.70;0.77;;;;;;;21.92;46.91;100923.13;4923375;28;97074;-47
2022/06/07 07:51:36;;;;;;;1.10;0.60;;;;;;;21.92;46.78;100927.97;4920356;28;97107;-47
2022/06/07 07:54:04;;;;;;;1.20;0.90;;;;;;;21.88;46.39;100922.75;4923333;28;96777;-47
2022/06/07 07:56:30;;;;;;;1.53;0.60;;;;;;;21.85;46.39;100929.47;4923903;28;97491;-47
2022/06/07 07:58:57;;;;;;;4.43;0.63;;;;;;;21.81;46.16;100923.50;4924628;28;96785;-47
2022/06/07 08:01:26;;;;;;;0.80;0.60;;;;;;;21.80;46.18;100932.47;4930419;28;97563;-47
2022/06/07 08:03:52;;;;;;;2.73;0.93;;;;;;;21.84;46.22;100927.97;4920552;28;97790;-48
2022/06/07 08:06:20;;;;;;;1.43;0.77;;;;;;;21.82;45.69;100936.19;4923823;28;96941;-47
2022/06/07 08:08:47;;;;;;;1.00;0.80;;;;;;;21.73;45.74;100931.19;4920907;28;96817;-47
2022/06/07 08:11:14;;;;;;;1.07;0.57;;;;;;;21.74;45.65;100924.25;4920578;28;96941;-47
2022/06/07 08:13:39;;;;;;;2.10;0.70;;;;;;;21.80;45.76;100930.41;4921861;28;97577;-47
2022/06/07 08:16:09;;;;;;;4.47;0.80;;;;;;;21.86;45.63;100919.03;4913005;28;97274;-47
2022/06/07 08:18:35;;;;;;;1.10;0.80;;;;;;;21.91;45.45;100924.41;4921353;28;97034;-47
2022/06/07 08:21:05;;;;;;;3.67;0.70;;;;;;;21.93;45.27;100921.78;4922484;28;97021;-47
2022/06/07 08:23:31;;;;;;;4.40;0.63;;;;;;;21.98;45.25;100918.06;4924686;28;100419;-46
2022/06/07 08:25:57;;;;;;;1.63;0.77;;;;;;;22.02;45.30;100920.44;4922863;28;97734;-47
2022/06/07 08:28:23;;;;;;;0.97;0.90;;;;;;;22.04;45.24;100912.97;4918060;28;97031;-48
2022/06/07 08:30:50;;;;;;;1.00;0.63;;;;;;;22.02;45.13;100924.00;4920880;28;97048;-47
2022/06/07 08:38:49;;;;;;;0.70;0.67;;;;;;;22.06;45.36;100921.56;4919492;28;97242;-47
2022/06/07 08:41:27;;;;;;;1.00;0.77;;;;;;;22.04;45.13;100917.84;4920605;28;97621;-47
2022/06/07 08:43:58;;;;;;;2.40;0.70;;;;;;;22.06;45.53;100924.38;4922642;28;102268;-47
2022/06/07 08:46:29;;;;;;;5.90;0.80;;;;;;;22.11;45.23;100917.81;4922382;28;100395;-48
2022/06/07 08:48:55;;;;;;;1.50;0.80;;;;;;;22.16;45.63;100914.06;4921451;28;97188;-46
2022/06/07 08:51:28;;;;;;;0.83;0.80;;;;;;;22.28;45.63;100922.78;4911958;28;97047;-47
2022/06/07 08:53:59;;;;;;;1.47;1.17;;;;;;;22.28;45.52;100920.72;4918809;28;96666;-47
2022/06/07 08:56:28;;;;;;;1.33;0.57;;;;;;;22.26;45.34;100914.19;4918405;28;96850;-47
2022/06/07 08:58:59;;;;;;;5.03;0.97;;;;;;;22.30;45.60;100917.38;4922270;28;96926;-47
2022/06/07 09:01:47;;;;;;;0.90;0.70;;;;;;;22.18;45.12;100911.44;4918740;28;97163;-47
2022/06/07 09:04:31;;;;;;;0.83;0.73;;;;;;;22.15;45.42;100915.38;4919843;28;100509;-48
2022/06/07 09:07:03;;;;;;;1.50;0.83;;;;;;;22.15;45.63;100920.22;4923309;28;97335;-47
2022/06/07 09:12:22;;;;;;;2.07;1.03;;;;;;;22.19;45.49;100924.13;4919346;28;97038;-47
2022/06/07 09:14:49;;;;;;;3.80;1.47;;;;;;;22.27;45.56;100919.25;4915821;28;101807;-47
2022/06/07 09:17:19;;;;;;;1.47;1.07;;;;;;;22.46;45.40;100920.81;4919596;28;97348;-47
2022/06/07 09:19:46;;;;;;;1.23;0.87;;;;;;;22.58;45.00;100914.22;4920050;28;97063;-47
2022/06/07 09:22:25;;;;;;;1.27;0.70;;;;;;;22.62;44.95;100911.03;4918407;28;97006;-47
2022/06/07 09:24:58;;;;;;;1.67;0.93;;;;;;;22.64;44.83;100922.44;4924094;28;96868;-47
2022/06/07 09:27:27;;;;;;;0.90;0.50;;;;;;;22.64;45.09;100914.00;4921035;28;97361;-47
2022/06/07 09:30:09;;;;;;;0.90;0.73;;;;;;;22.65;44.52;100907.09;4923523;28;96948;-47
2022/06/07 09:32:37;;;;;;;1.13;1.03;;;;;;;22.69;44.96;100913.06;4920211;28;97191;-47
2022/06/07 09:35:08;;;;;;;1.67;0.90;;;;;;;22.68;44.86;100908.75;4918414;28;101884;-47
2022/06/07 09:38:12;;;;;;;0.60;0.60;;;;;;;22.61;44.82;100917.94;4923583;28;97484;-47
2022/06/07 09:40:46;;;;;;;1.93;0.90;;;;;;;22.57;44.61;100918.31;4917891;28;96933;-47
2022/06/07 09:43:11;;;;;;;2.80;0.87;;;;;;;22.52;45.04;100912.94;4926471;28;96916;-47
2022/06/07 09:45:38;;;;;;;0.97;0.90;;;;;;;;;;4917118;28;97077;-47
2022/06/07 09:48:26;;;;;;;2.20;1.17;;;;;;;22.54;44.91;100913.13;4922049;28;98466;-48
2022/06/07 09:51:02;;;;;;;1.33;0.73;;;;;;;22.61;44.57;100906.72;4921100;28;97240;-48
2022/06/07 09:53:43;;;;;;;0.70;0.70;;;;;;;22.63;44.92;100906.94;4922654;28;96779;-48
2022/06/07 09:56:27;;;;;;;1.10;0.87;;;;;;;22.64;44.52;100917.56;4919869;28;97184;-47
2022/06/07 09:59:12;;;;;;;0.80;0.80;;;;;;;22.63;44.49;100906.94;4921121;28;97671;-47
2022/06/07 10:01:54;;;;;;;0.80;0.80;;;;;;;22.69;44.92;100905.41;4912108;28;96945;-47
2022/06/07 10:04:38;;;;;;;2.53;1.10;;;;;;;22.78;44.66;100913.16;4919226;28;96898;-47
2022/06/07 10:07:20;;;;;;;1.63;0.90;;;;;;;22.78;44.37;100910.34;4920352;28;101780;-47
2022/06/07 10:10:10;;;;;;;1.47;0.70;;;;;;;22.75;44.38;100902.34;4929007;28;100668;-47
2022/06/07 10:12:54;;;;;;;1.00;0.70;;;;;;;22.66;43.92;100905.78;4920434;28;97255;-48
2022/06/07 10:15:40;;;;;;;1.30;0.77;;;;;;;22.61;44.29;100903.94;4926158;28;97216;-48
2022/06/07 10:18:34;;;;;;;1.00;0.80;;;;;;;22.52;43.70;100905.25;4921491;28;97263;-47
2022/06/07 10:21:11;;;;;;;0.67;0.67;;;;;;;22.51;44.21;100900.22;4920077;28;103008;-47
2022/06/07 10:23:58;;;;;;;3.17;1.00;;;;;;;22.52;43.96;100907.34;4923553;28;96829;-47
2022/06/07 10:26:45;;;;;;;3.07;0.90;;;;;;;22.47;44.11;100908.31;4917759;28;96966;-48
2022/06/07 10:29:50;;;;;;;0.73;0.73;;;;;;;22.36;43.74;100904.63;4925252;28;100489;-48
2022/06/07 10:32:27;;;;;;;2.43;0.80;;;;;;;22.36;44.41;100903.88;4921183;28;100194;-47
2022/06/07 10:35:05;;;;;;;0.77;0.57;;;;;;;22.39;44.12;100909.06;4922264;28;98005;-47
2022/06/07 10:37:48;;;;;;;1.67;0.60;;;;;;;22.45;44.21;100908.88;4925417;28;97013;-47
2022/06/07 10:40:50;;;;;;;0.70;0.70;;;;;;;22.44;43.97;100909.44;4916691;28;100518;-47
2022/06/07 10:43:23;;;;;;;1.13;0.70;;;;;;;22.39;44.13;100906.28;4925137;28;101581;-48
2022/06/07 10:45:54;;;;;;;1.10;1.00;;;;;;;22.37;44.18;100908.91;4921673;28;97039;-46
2022/06/07 10:48:47;;;;;;;0.60;0.60;;;;;;;22.31;44.08;100905.56;4920975;28;97108;-47
2022/06/07 10:54:12;;;;;;;1.37;0.70;;;;;;;22.18;44.57;100911.44;4926364;28;99995;-47
2022/06/07 10:56:45;;;;;;;1.10;0.80;;;;;;;22.17;44.49;100909.94;4924073;28;96962;-47
2022/06/07 10:59:20;;;;;;;0.80;0.80;;;;;;;22.15;44.58;100923.78;4921100;28;98772;-48
2022/06/07 11:02:12;;;;;;;3.77;1.40;;;;;;;22.10;44.46;100913.53;4915337;28;97580;-47
2022/06/07 11:10:31;;;;;;;1.43;1.33;;;;;;;22.41;44.98;100910.59;4921778;28;102968;-47
2022/06/07 11:13:17;;;;;;;1.43;1.33;;;;;;;22.55;44.74;100909.75;4916073;28;96844;-47
2022/06/07 11:15:42;;;;;;;1.23;0.90;;;;;;;22.69;44.81;100915.84;4923412;28;101668;-48
2022/06/07 11:18:19;;;;;;;1.40;1.33;;;;;;;22.72;44.74;100918.25;4927264;28;96915;-47
2022/06/07 11:21:11;;;;;;;3.00;1.73;;;;;;;22.66;44.55;100908.56;4926107;28;97143;-47
2022/06/07 11:23:42;;;;;;;1.60;1.50;;;;;;;22.66;44.42;100902.97;4927663;28;102355;-47
2022/06/07 11:26:14;;;;;;;1.40;1.30;;;;;;;22.65;44.51;100912.72;4915469;28;97417;-47
2022/06/07 11:28:39;;;;;;;1.57;1.47;;;;;;;22.67;44.42;100912.88;4925329;28;97137;-47
2022/06/07 11:31:20;;;;;;;1.00;1.00;;;;;;;22.66;44.45;100908.56;4922156;28;98306;-47
2022/06/07 11:33:51;;;;;;;1.33;1.23;;;;;;;22.60;44.08;100916.47;4920464;28;100638;-47
2022/06/07 11:36:20;;;;;;;1.33;1.27;;;;;;;22.55;44.78;100909.75;4924318;28;97245;-47
2022/06/07 11:38:57;;;;;;;3.23;1.47;;;;;;;22.55;44.82;100903.38;4922063;28;96702;-47
2022/06/07 11:41:37;;;;;;;2.37;1.43;;;;;;;22.54;44.84;100913.84;4930174;28;96993;-47
2022/06/07 11:44:11;;;;;;;1.50;1.50;;;;;;;22.46;44.76;100906.78;4917986;28;101780;-48
2022/06/07 11:46:49;;;;;;;1.93;1.50;;;;;;;22.41;44.54;100919.72;4917099;28;96890;-47
2022/06/07 11:49:17;;;;;;;1.33;1.23;;;;;;;22.35;44.87;100917.13;4914498;28;96828;-48
2022/06/07 11:51:54;;;;;;;1.33;1.23;;;;;;;22.34;45.02;100912.13;4926558;28;96759;-48
2022/06/07 11:54:45;;;;;;;1.60;1.50;;;;;;;22.41;45.02;100916.19;4921539;28;100768;-47
2022/06/07 11:57:17;;;;;;;0.90;0.90;;;;;;;22.56;44.97;100918.91;4918525;28;96928;-47
2022/06/07 11:59:48;;;;;;;1.80;1.33;;;;;;;22.75;44.77;100913.56;4925102;28;97114;-47
2022/06/07 12:02:13;;;;;;;1.50;1.40;;;;;;;22.85;44.60;100920.03;4903390;28;97085;-47